createdAt,value
2022-08-26T00:00:16.957Z,31.62
2022-08-26T00:05:41.149Z,31.79
2022-08-26T00:11:07.144Z,31.39
2022-08-26T00:16:33.336Z,31.84
2022-08-26T00:21:57.291Z,31.40
2022-08-26T00:27:21.068Z,31.37
2022-08-26T00:32:47.402Z,31.42
2022-08-26T00:38:12.273Z,31.35
2022-08-26T00:43:46.209Z,31.41
2022-08-26T00:49:14.848Z,31.63
2022-08-26T00:54:45.368Z,31.50
2022-08-26T01:00:13.138Z,31.59
2022-08-26T01:05:39.722Z,32.34
2022-08-26T01:11:03.647Z,32.16
2022-08-26T01:16:28.516Z,32.34
2022-08-26T01:21:57.518Z,32.20
2022-08-26T01:27:24.495Z,32.60
2022-08-26T01:32:50.318Z,33.22
2022-08-26T01:38:14.606Z,32.83
2022-08-26T01:43:42.625Z,33.06
2022-08-26T01:49:07.916Z,33.38
2022-08-26T01:54:33.566Z,33.75
2022-08-26T02:00:02.674Z,33.71
2022-08-26T02:05:36.105Z,34.14
2022-08-26T02:11:03.029Z,34.13
2022-08-26T02:16:30.407Z,34.15
2022-08-26T02:21:55.373Z,34.27
2022-08-26T02:27:22.717Z,34.81
2022-08-26T02:32:49.643Z,34.44
2022-08-26T02:38:14.846Z,34.67
2022-08-26T02:43:40.488Z,34.57
2022-08-26T02:49:05.817Z,34.97
2022-08-26T02:54:31.219Z,34.98
2022-08-26T02:59:58.809Z,35.18
2022-08-26T03:05:25.229Z,35.11
2022-08-26T03:10:49.390Z,35.36
2022-08-26T03:16:13.584Z,35.30
2022-08-26T03:21:39.861Z,35.57
2022-08-26T03:27:05.912Z,35.86
2022-08-26T03:32:31.416Z,35.79
2022-08-26T03:37:56.303Z,36.00
2022-08-26T03:43:21.581Z,35.79
2022-08-26T03:48:47.001Z,35.98
2022-08-26T03:54:12.552Z,35.91
2022-08-26T03:59:36.252Z,35.52
2022-08-26T04:05:02.589Z,35.42
2022-08-26T04:10:29.545Z,35.46
2022-08-26T04:15:53.509Z,35.49
2022-08-26T04:21:18.395Z,35.14
2022-08-26T04:26:44.915Z,35.35
2022-08-26T04:32:09.643Z,35.54
2022-08-26T04:37:34.653Z,35.25
2022-08-26T04:43:00.226Z,35.34
2022-08-26T04:48:23.975Z,35.03
2022-08-26T04:53:50.729Z,35.30
2022-08-26T04:59:18.291Z,35.02
2022-08-26T05:04:43.758Z,34.54
2022-08-26T05:10:08.774Z,34.12
2022-08-26T05:15:35.155Z,34.37
2022-08-26T05:21:02.597Z,34.64
2022-08-26T05:26:28.396Z,33.92
2022-08-26T05:31:56.547Z,34.57
2022-08-26T05:37:21.193Z,34.20
2022-08-26T05:42:48.183Z,34.07
2022-08-26T05:48:13.427Z,34.14
2022-08-26T05:53:40.152Z,33.42
2022-08-26T05:59:14.636Z,32.86
2022-08-26T06:04:40.320Z,32.22
2022-08-26T06:10:30.614Z,31.45
2022-08-26T06:15:50.907Z,30.14
2022-08-26T06:21:18.036Z,29.38
2022-08-26T06:26:46.666Z,28.79
2022-08-26T06:32:14.972Z,27.65
2022-08-26T06:37:42.960Z,28.61
2022-08-26T06:43:06.705Z,26.11
2022-08-26T06:48:31.795Z,25.71
2022-08-26T06:53:59.580Z,26.91
2022-08-26T06:59:24.639Z,27.72
2022-08-26T07:04:51.200Z,27.61
2022-08-26T07:10:18.215Z,28.37
2022-08-26T07:15:42.888Z,28.18
2022-08-26T07:21:08.663Z,27.80
2022-08-26T07:26:33.796Z,26.56
2022-08-26T07:31:59.718Z,26.54
2022-08-26T07:37:24.448Z,26.20
2022-08-26T07:42:51.143Z,25.52
2022-08-26T07:48:18.825Z,26.10
2022-08-26T07:53:48.028Z,26.50
2022-08-26T07:59:44.228Z,26.67
2022-08-26T08:05:12.720Z,26.13
2022-08-26T08:10:37.348Z,24.46
2022-08-26T08:16:00.967Z,25.01
2022-08-26T08:21:26.824Z,24.03
2022-08-26T08:26:52.365Z,24.52
2022-08-26T08:32:19.946Z,25.97
2022-08-26T08:37:46.809Z,25.68
2022-08-26T08:43:15.874Z,26.65
2022-08-26T08:48:42.501Z,26.10
2022-08-26T08:54:21.967Z,25.95
2022-08-26T08:59:53.349Z,25.64
2022-08-26T09:05:19.926Z,24.87
2022-08-26T09:10:51.295Z,25.53
2022-08-26T09:16:19.197Z,24.37
2022-08-26T09:21:45.261Z,24.94
2022-08-26T09:27:11.692Z,25.42
2022-08-26T09:32:37.283Z,25.07
2022-08-26T09:38:01.798Z,25.43
2022-08-26T09:43:30.689Z,24.73
2022-08-26T09:48:54.576Z,24.72
2022-08-26T09:54:30.201Z,24.88
2022-08-26T09:59:57.997Z,24.80
2022-08-26T10:05:29.816Z,24.70
2022-08-26T10:10:56.306Z,25.66
2022-08-26T10:16:24.366Z,25.80
2022-08-26T10:21:57.497Z,26.14
2022-08-26T10:27:26.649Z,26.27
2022-08-26T10:32:56.820Z,26.47
2022-08-26T10:38:23.820Z,27.59
2022-08-26T10:43:51.164Z,28.06
2022-08-26T10:49:17.973Z,27.38
2022-08-26T10:54:46.067Z,27.79
2022-08-26T11:00:33.431Z,27.93
2022-08-26T11:06:32.883Z,30.54
2022-08-26T11:11:58.511Z,29.61
2022-08-26T11:17:43.241Z,29.29
2022-08-26T11:23:37.425Z,29.26
2022-08-26T11:29:03.902Z,29.71
2022-08-26T11:34:55.171Z,29.38
2022-08-26T11:40:22.705Z,28.83
2022-08-26T11:45:58.705Z,28.87
2022-08-26T11:51:23.854Z,28.93
2022-08-26T11:56:49.266Z,29.50
2022-08-26T12:02:17.942Z,29.57
2022-08-26T12:07:50.039Z,29.44
2022-08-26T12:13:22.773Z,29.35
2022-08-26T12:18:50.687Z,28.54
2022-08-26T12:24:18.673Z,28.67
2022-08-26T12:29:44.577Z,28.47
2022-08-26T12:35:15.664Z,28.13
2022-08-26T12:40:41.940Z,27.83
2022-08-26T12:46:07.793Z,27.28
2022-08-26T12:51:34.913Z,27.63
2022-08-26T12:57:01.291Z,28.10
2022-08-26T13:02:36.098Z,28.11
2022-08-26T13:08:16.250Z,29.15
2022-08-26T13:13:41.194Z,28.83
2022-08-26T13:19:10.404Z,28.99
2022-08-26T13:24:38.137Z,29.23
2022-08-26T13:30:02.299Z,29.04
2022-08-26T13:35:29.628Z,28.82
2022-08-26T13:40:55.259Z,29.12
2022-08-26T13:46:21.045Z,28.18
2022-08-26T13:51:44.846Z,28.17
2022-08-26T13:57:09.989Z,28.39
2022-08-26T14:02:34.088Z,28.20
2022-08-26T14:07:59.991Z,28.51
2022-08-26T14:13:25.280Z,28.65
2022-08-26T14:18:50.954Z,29.13
2022-08-26T14:24:15.373Z,29.87
2022-08-26T14:29:41.315Z,30.62
2022-08-26T14:35:05.137Z,30.56
2022-08-26T14:40:30.791Z,31.05
2022-08-26T14:45:56.156Z,31.60
2022-08-26T14:51:21.638Z,31.80
2022-08-26T14:56:50.376Z,32.06
2022-08-26T15:02:33.543Z,32.50
2022-08-26T15:07:57.730Z,32.61
2022-08-26T15:13:21.493Z,32.72
2022-08-26T15:18:47.311Z,32.88
2022-08-26T15:24:11.257Z,33.01
2022-08-26T15:29:37.620Z,33.34
2022-08-26T15:35:06.930Z,33.52
2022-08-26T15:40:33.419Z,33.61
2022-08-26T15:45:58.339Z,33.69
2022-08-26T15:51:24.883Z,34.12
2022-08-26T15:56:52.171Z,34.54
2022-08-26T16:02:17.840Z,35.00
2022-08-26T16:07:43.440Z,34.59
2022-08-26T16:13:12.965Z,35.32
2022-08-26T16:18:38.997Z,35.71
2022-08-26T16:24:05.648Z,36.20
2022-08-26T16:29:29.599Z,36.01
2022-08-26T16:34:56.431Z,35.29
2022-08-26T16:40:23.998Z,35.36
2022-08-26T16:45:49.639Z,35.01
2022-08-26T16:51:14.084Z,35.24
2022-08-26T16:56:40.102Z,35.05
2022-08-26T17:02:04.254Z,35.00
2022-08-26T17:07:28.814Z,35.33
2022-08-26T17:12:54.651Z,35.57
2022-08-26T17:18:19.123Z,35.51
2022-08-26T17:23:44.126Z,35.83
2022-08-26T17:29:11.430Z,36.30
2022-08-26T17:34:35.539Z,37.16
2022-08-26T17:40:00.609Z,37.37
2022-08-26T17:45:25.826Z,37.46
2022-08-26T17:50:50.297Z,37.61
2022-08-26T17:56:15.709Z,37.83
2022-08-26T18:01:41.570Z,37.76
2022-08-26T18:07:07.686Z,37.50
2022-08-26T18:12:31.522Z,36.66
2022-08-26T18:17:58.557Z,36.88
2022-08-26T18:23:22.915Z,36.93
2022-08-26T18:28:46.761Z,36.84
2022-08-26T18:34:15.748Z,36.94
2022-08-26T18:39:39.849Z,36.78
2022-08-26T18:45:04.295Z,36.96
2022-08-26T18:50:29.748Z,37.58
2022-08-26T18:55:57.031Z,38.58
2022-08-26T19:01:25.471Z,38.05
2022-08-26T19:06:53.573Z,37.86
2022-08-26T19:12:20.331Z,38.04
2022-08-26T19:17:44.841Z,39.40
2022-08-26T19:23:30.562Z,40.10
2022-08-26T19:28:55.468Z,41.77
2022-08-26T19:34:21.122Z,42.04
2022-08-26T19:39:47.301Z,43.44
2022-08-26T19:45:24.559Z,43.94
2022-08-26T19:50:49.979Z,44.42
2022-08-26T19:56:17.291Z,44.87
2022-08-26T20:01:41.498Z,44.83
2022-08-26T20:07:06.179Z,44.60
2022-08-26T20:12:35.643Z,44.26
2022-08-26T20:17:59.962Z,43.66
2022-08-26T20:23:23.979Z,43.31
2022-08-26T20:28:51.119Z,43.10
2022-08-26T20:34:16.535Z,42.90
2022-08-26T20:39:41.781Z,42.97
2022-08-26T20:45:08.679Z,42.78
2022-08-26T20:50:33.286Z,43.37
2022-08-26T20:56:00.759Z,43.56
2022-08-26T21:01:27.104Z,43.49
2022-08-26T21:06:52.875Z,43.78
2022-08-26T21:12:18.753Z,43.87
2022-08-26T21:17:43.972Z,43.66
2022-08-26T21:23:07.713Z,43.31
2022-08-26T21:28:32.184Z,42.93
2022-08-26T21:33:59.751Z,43.12
2022-08-26T21:39:24.081Z,42.21
2022-08-26T21:44:50.830Z,41.61
2022-08-26T21:50:22.009Z,41.46
2022-08-26T21:55:46.921Z,41.23
2022-08-26T22:01:11.793Z,40.16
2022-08-26T22:06:43.353Z,40.10
2022-08-26T22:12:09.486Z,39.33
2022-08-26T22:17:34.145Z,39.17
2022-08-26T22:23:01.029Z,38.60
2022-08-26T22:28:24.696Z,38.11
2022-08-26T22:33:49.196Z,36.47
2022-08-26T22:39:15.546Z,36.54
2022-08-26T22:44:43.933Z,36.96
2022-08-26T22:50:09.317Z,36.66
2022-08-26T22:55:35.001Z,36.76
2022-08-26T23:00:59.588Z,36.79
2022-08-26T23:06:23.266Z,36.58
2022-08-26T23:11:49.748Z,36.45
2022-08-26T23:17:14.427Z,36.70
2022-08-26T23:22:39.799Z,37.22
2022-08-26T23:28:05.516Z,37.62
2022-08-26T23:33:49.826Z,37.53
2022-08-26T23:39:16.665Z,37.66
2022-08-26T23:44:41.709Z,37.43
2022-08-26T23:50:06.478Z,37.97
2022-08-26T23:55:31.567Z,37.88
